Terminal Aerodrome Forecast
Issued by NWS

Home | Current Version | Previous Version | Text Only | Print | Product List | Glossary On
Versions: 1 2 3 4 5 6 7 8 9 10 11 12 13 14 15 16 17 18
000
FTUS41 KBTV 202300
TAFMPV
TAF
KMPV 202330Z 2100/2124 17012KT P6SM SCT030 OVC045
     FM210400 19010KT P6SM OVC015
     FM211500 18010G19KT P6SM OVC025=

USA.gov is the U.S. government's official web portal to all federal, state and local government web resources and services.